createdAt,value
2018-02-21T00:00:13.476Z,31.44
2018-02-21T00:01:20.255Z,31.53
2018-02-21T00:02:26.702Z,31.46
2018-02-21T00:03:33.525Z,31.49
2018-02-21T00:04:40.275Z,31.53
2018-02-21T00:05:46.853Z,31.51
2018-02-21T00:06:53.387Z,31.44
2018-02-21T00:08:00.015Z,31.57
2018-02-21T00:09:06.905Z,31.56
2018-02-21T00:10:13.701Z,31.46
2018-02-21T00:11:20.282Z,31.57
2018-02-21T00:12:26.992Z,31.56
2018-02-21T00:13:33.662Z,31.49
2018-02-21T00:14:40.210Z,31.52
2018-02-21T00:15:46.031Z,31.60
2018-02-21T00:16:52.516Z,31.57
2018-02-21T00:17:59.272Z,31.54
2018-02-21T00:19:05.674Z,31.71
2018-02-21T00:20:12.859Z,31.61
2018-02-21T00:21:19.649Z,31.59
2018-02-21T00:22:26.714Z,31.65
2018-02-21T00:23:32.507Z,31.54
2018-02-21T00:24:39.222Z,31.72
2018-02-21T00:25:45.893Z,31.62
2018-02-21T00:26:52.724Z,31.70
2018-02-21T00:27:59.509Z,31.66
2018-02-21T00:29:06.160Z,31.54
2018-02-21T00:30:12.771Z,31.67
2018-02-21T00:31:19.238Z,31.61
2018-02-21T00:32:25.835Z,31.66
2018-02-21T00:33:32.281Z,31.71
2018-02-21T00:34:38.692Z,31.59
2018-02-21T00:35:45.439Z,31.59
2018-02-21T00:36:52.126Z,31.64
2018-02-21T00:37:58.514Z,31.79
2018-02-21T00:39:04.298Z,31.71
2018-02-21T00:40:10.828Z,31.68
2018-02-21T00:41:17.324Z,31.75
2018-02-21T00:42:23.873Z,31.77
2018-02-21T00:43:30.376Z,31.72
2018-02-21T00:44:36.844Z,31.73
2018-02-21T00:45:43.333Z,31.80
2018-02-21T00:46:49.956Z,31.74
2018-02-21T00:47:56.725Z,31.75
2018-02-21T00:49:03.516Z,31.69
2018-02-21T00:50:10.333Z,31.80
2018-02-21T00:51:17.062Z,31.63
2018-02-21T00:52:23.515Z,31.78
2018-02-21T00:53:29.301Z,31.81
2018-02-21T00:54:36.002Z,31.85
2018-02-21T00:55:42.923Z,31.80
2018-02-21T00:56:49.515Z,31.82
2018-02-21T00:57:56.489Z,31.75
2018-02-21T00:59:03.270Z,31.91
2018-02-21T01:00:10.044Z,31.85
2018-02-21T01:01:16.674Z,31.82
2018-02-21T01:02:23.082Z,31.78
2018-02-21T01:03:29.474Z,31.92
2018-02-21T01:04:36.240Z,31.81
2018-02-21T01:05:42.762Z,31.88
2018-02-21T01:06:49.508Z,31.90
2018-02-21T01:07:56.531Z,31.90
2018-02-21T01:09:03.177Z,31.94
2018-02-21T01:10:09.991Z,31.82
2018-02-21T01:11:16.997Z,32.00
2018-02-21T01:12:23.563Z,31.99
2018-02-21T01:13:29.986Z,31.90
2018-02-21T01:14:37.063Z,31.90
2018-02-21T01:15:43.495Z,31.96
2018-02-21T01:16:50.127Z,31.92
2018-02-21T01:17:56.874Z,31.94
2018-02-21T01:19:04.049Z,31.93
2018-02-21T01:20:11.065Z,31.97
2018-02-21T01:21:17.719Z,32.01
2018-02-21T01:22:24.437Z,31.95
2018-02-21T01:23:31.081Z,32.07
2018-02-21T01:24:37.997Z,31.98
2018-02-21T01:25:44.861Z,31.96
2018-02-21T01:26:51.581Z,32.06
2018-02-21T01:27:58.365Z,32.09
2018-02-21T01:29:05.002Z,32.09
2018-02-21T01:30:11.569Z,32.07
2018-02-21T01:31:17.995Z,32.04
2018-02-21T01:32:24.568Z,32.11
2018-02-21T01:33:31.520Z,32.02
2018-02-21T01:34:38.106Z,32.11
2018-02-21T01:35:44.689Z,32.05
2018-02-21T01:36:51.367Z,32.09
2018-02-21T01:37:56.801Z,32.09
2018-02-21T01:39:03.271Z,32.03
2018-02-21T01:40:09.527Z,32.11
2018-02-21T01:41:16.609Z,32.09
2018-02-21T01:42:22.332Z,32.17
2018-02-21T01:43:28.960Z,32.06
2018-02-21T01:44:35.660Z,32.21
2018-02-21T01:45:41.432Z,32.10
2018-02-21T01:46:48.140Z,32.10
2018-02-21T01:47:55.081Z,32.07
2018-02-21T01:49:01.414Z,32.14
2018-02-21T01:50:08.351Z,32.14
2018-02-21T01:51:14.878Z,32.06
2018-02-21T01:52:21.424Z,32.11
2018-02-21T01:53:27.464Z,32.20
2018-02-21T01:54:34.152Z,32.17
2018-02-21T01:55:40.697Z,32.10
2018-02-21T01:56:47.121Z,32.17
2018-02-21T01:57:53.572Z,32.11
2018-02-21T01:59:00.143Z,32.14
2018-02-21T02:00:07.222Z,32.19
2018-02-21T02:01:14.173Z,32.17
2018-02-21T02:02:20.495Z,32.16
2018-02-21T02:03:26.995Z,32.17
2018-02-21T02:04:33.521Z,32.33
2018-02-21T02:05:39.887Z,32.14
2018-02-21T02:06:46.376Z,32.25
2018-02-21T02:07:52.580Z,32.16
2018-02-21T02:08:58.933Z,32.19
2018-02-21T02:10:04.580Z,32.21
2018-02-21T02:11:11.443Z,32.23
2018-02-21T02:12:18.037Z,32.15
2018-02-21T02:13:23.669Z,32.22
2018-02-21T02:14:29.221Z,32.21
2018-02-21T02:15:35.373Z,32.18
2018-02-21T02:16:41.980Z,32.17
2018-02-21T02:17:48.396Z,32.16
2018-02-21T02:18:53.906Z,32.22
2018-02-21T02:19:59.498Z,32.32
2018-02-21T02:21:05.176Z,32.26
2018-02-21T02:22:12.091Z,32.23
2018-02-21T02:23:18.668Z,32.30
2018-02-21T02:24:25.175Z,32.31
2018-02-21T02:25:31.895Z,32.23
2018-02-21T02:26:38.427Z,32.15
2018-02-21T02:27:44.371Z,32.20
2018-02-21T02:28:51.137Z,32.27
2018-02-21T02:29:58.496Z,32.23
2018-02-21T02:31:05.571Z,32.27
2018-02-21T02:32:13.123Z,32.33
2018-02-21T02:33:20.306Z,32.25
2018-02-21T02:34:26.919Z,32.34
2018-02-21T02:35:33.587Z,32.41
2018-02-21T02:36:40.102Z,32.27
2018-02-21T02:37:46.938Z,32.37
2018-02-21T02:38:53.630Z,32.29
2018-02-21T02:40:00.309Z,32.23
2018-02-21T02:41:07.184Z,32.29
2018-02-21T02:42:14.301Z,32.29
2018-02-21T02:43:20.852Z,32.39
2018-02-21T02:44:27.243Z,32.31
2018-02-21T02:45:34.501Z,32.40
2018-02-21T02:46:41.112Z,32.39
2018-02-21T02:47:47.663Z,32.40
2018-02-21T02:48:54.224Z,32.41
2018-02-21T02:50:00.969Z,32.32
2018-02-21T02:51:07.917Z,32.45
2018-02-21T02:52:13.849Z,32.27
2018-02-21T02:53:20.369Z,32.40
2018-02-21T02:54:27.306Z,32.37
2018-02-21T02:55:34.395Z,32.43
2018-02-21T02:56:41.467Z,32.38
2018-02-21T02:57:48.873Z,32.43
2018-02-21T02:58:55.720Z,32.35
2018-02-21T03:00:02.292Z,32.37
2018-02-21T03:01:09.324Z,32.46
2018-02-21T03:02:16.252Z,32.43
2018-02-21T03:03:23.575Z,32.36
2018-02-21T03:04:30.298Z,32.43
2018-02-21T03:05:36.972Z,32.45
2018-02-21T03:06:43.665Z,32.44
2018-02-21T03:07:50.189Z,32.44
2018-02-21T03:08:56.788Z,32.52
2018-02-21T03:10:03.601Z,32.44
2018-02-21T03:11:10.304Z,32.43
2018-02-21T03:12:16.193Z,32.39
2018-02-21T03:13:21.941Z,32.46
2018-02-21T03:14:28.680Z,32.48
2018-02-21T03:15:35.515Z,32.38
2018-02-21T03:16:42.115Z,32.53
2018-02-21T03:17:48.796Z,32.44
2018-02-21T03:18:55.722Z,32.48
2018-02-21T03:20:02.469Z,32.46
2018-02-21T03:21:08.971Z,32.48
2018-02-21T03:22:15.528Z,32.52
2018-02-21T03:23:22.093Z,32.51
2018-02-21T03:24:28.610Z,32.49
2018-02-21T03:25:35.286Z,32.52
2018-02-21T03:26:42.199Z,32.47
2018-02-21T03:27:49.013Z,32.49
2018-02-21T03:29:00.119Z,32.48
2018-02-21T03:30:07.167Z,32.51
2018-02-21T03:31:13.321Z,32.52
2018-02-21T03:32:20.155Z,32.56
2018-02-21T03:33:26.648Z,32.62
2018-02-21T03:34:33.638Z,32.54
2018-02-21T03:35:40.758Z,32.61
2018-02-21T03:36:47.103Z,32.56
2018-02-21T03:37:53.803Z,32.48
2018-02-21T03:39:00.513Z,32.52
2018-02-21T03:40:07.742Z,32.54
2018-02-21T03:41:14.502Z,32.48
2018-02-21T03:42:21.227Z,32.51
2018-02-21T03:43:27.699Z,32.55
2018-02-21T03:44:34.309Z,32.59
2018-02-21T03:45:41.000Z,32.61
2018-02-21T03:46:47.952Z,32.56
2018-02-21T03:47:54.631Z,32.58
2018-02-21T03:49:01.583Z,32.60
2018-02-21T03:50:08.467Z,32.62
2018-02-21T03:51:15.235Z,32.54
2018-02-21T03:52:21.907Z,32.59
2018-02-21T03:53:27.700Z,32.61
2018-02-21T03:54:35.298Z,32.57
2018-02-21T03:55:42.261Z,32.62
2018-02-21T03:56:48.887Z,32.57
2018-02-21T03:57:55.831Z,32.68
2018-02-21T03:59:02.792Z,32.57
2018-02-21T04:00:09.891Z,32.50
2018-02-21T04:01:16.638Z,32.60
2018-02-21T04:02:23.022Z,32.64
2018-02-21T04:03:29.982Z,32.69
2018-02-21T04:04:36.911Z,32.56
2018-02-21T04:05:44.041Z,32.57
2018-02-21T04:06:50.576Z,32.51
2018-02-21T04:07:57.795Z,32.65
2018-02-21T04:09:04.621Z,32.67
2018-02-21T04:10:11.660Z,32.59
2018-02-21T04:11:18.757Z,32.61
2018-02-21T04:12:25.598Z,32.62
2018-02-21T04:13:32.618Z,32.65
2018-02-21T04:14:39.822Z,32.61
2018-02-21T04:15:46.688Z,32.52
2018-02-21T04:16:53.845Z,32.61
2018-02-21T04:18:00.690Z,32.59
2018-02-21T04:19:07.638Z,32.72
2018-02-21T04:20:13.443Z,32.63
2018-02-21T04:21:20.501Z,32.68
2018-02-21T04:22:27.405Z,32.65
2018-02-21T04:23:34.342Z,32.78
2018-02-21T04:24:41.015Z,32.78
2018-02-21T04:25:47.709Z,32.76
2018-02-21T04:26:54.643Z,32.77
2018-02-21T04:28:01.834Z,32.73
2018-02-21T04:29:08.751Z,32.67
2018-02-21T04:30:14.737Z,32.81
2018-02-21T04:31:21.616Z,32.71
2018-02-21T04:32:28.541Z,32.71
2018-02-21T04:33:35.585Z,32.74
2018-02-21T04:34:42.889Z,32.74
2018-02-21T04:35:50.378Z,32.76
2018-02-21T04:36:57.313Z,32.70
2018-02-21T04:38:04.128Z,32.80
2018-02-21T04:39:10.932Z,32.85
2018-02-21T04:40:17.742Z,32.77
2018-02-21T04:41:24.676Z,32.69
2018-02-21T04:42:31.889Z,32.81
2018-02-21T04:43:38.906Z,32.76
2018-02-21T04:44:46.666Z,32.69
2018-02-21T04:45:54.218Z,32.67
2018-02-21T04:47:01.288Z,32.76
2018-02-21T04:48:08.559Z,32.67
2018-02-21T04:49:15.628Z,32.75
2018-02-21T04:50:22.901Z,32.60
2018-02-21T04:51:30.005Z,32.71
2018-02-21T04:52:38.161Z,32.64
2018-02-21T04:53:45.083Z,32.68
2018-02-21T04:54:52.311Z,32.69
2018-02-21T04:55:59.257Z,32.76
2018-02-21T04:57:06.081Z,32.68
2018-02-21T04:58:13.099Z,32.62
2018-02-21T04:59:20.217Z,32.62
2018-02-21T05:00:26.332Z,32.65
2018-02-21T05:01:32.228Z,32.66
2018-02-21T05:02:38.290Z,32.70
2018-02-21T05:05:02.869Z,32.67
2018-02-21T05:08:17.622Z,32.89
2018-02-21T05:11:26.196Z,32.78
2018-02-21T05:14:36.409Z,33.01
2018-02-21T05:16:37.329Z,33.37
2018-02-21T05:17:43.902Z,33.76
2018-02-21T05:18:49.945Z,33.88
2018-02-21T05:19:55.972Z,33.98
2018-02-21T05:21:02.348Z,34.27
2018-02-21T05:22:08.717Z,34.38
2018-02-21T05:23:15.557Z,34.55
2018-02-21T05:24:22.083Z,34.57
2018-02-21T05:25:28.713Z,34.84
2018-02-21T05:26:34.840Z,35.07
2018-02-21T05:27:40.668Z,35.06
2018-02-21T05:28:46.823Z,35.18
2018-02-21T05:29:54.135Z,35.24
2018-02-21T05:31:00.970Z,35.37
2018-02-21T05:32:07.479Z,35.41
2018-02-21T05:33:13.664Z,35.63
2018-02-21T05:34:20.007Z,35.70
2018-02-21T05:35:26.327Z,35.63
2018-02-21T05:36:32.753Z,35.72
